sensor_id;sensor_type;location;lat;lon;timestamp;temperature;humidity
59025;DHT22;44806;48.008;13.666;2024-03-22T00:00:11;8.20;99.90
59025;DHT22;44806;48.008;13.666;2024-03-22T00:02:38;8.20;99.90
59025;DHT22;44806;48.008;13.666;2024-03-22T00:05:05;8.20;99.90
59025;DHT22;44806;48.008;13.666;2024-03-22T00:07:32;8.20;99.90
59025;DHT22;44806;48.008;13.666;2024-03-22T00:09:59;8.30;99.90
59025;DHT22;44806;48.008;13.666;2024-03-22T00:12:25;8.30;99.90
59025;DHT22;44806;48.008;13.666;2024-03-22T00:14:52;8.20;99.90
59025;DHT22;44806;48.008;13.666;2024-03-22T00:17:20;8.20;99.90
59025;DHT22;44806;48.008;13.666;2024-03-22T00:19:48;8.30;99.90
59025;DHT22;44806;48.008;13.666;2024-03-22T00:22:14;8.30;99.90
59025;DHT22;44806;48.008;13.666;2024-03-22T00:24:43;8.30;99.90
59025;DHT22;44806;48.008;13.666;2024-03-22T00:27:09;8.30;99.90
59025;DHT22;44806;48.008;13.666;2024-03-22T00:29:37;8.20;99.90
59025;DHT22;44806;48.008;13.666;2024-03-22T00:32:04;8.20;99.90
59025;DHT22;44806;48.008;13.666;2024-03-22T00:34:33;8.20;99.90
59025;DHT22;44806;48.008;13.666;2024-03-22T00:36:59;8.20;99.90
59025;DHT22;44806;48.008;13.666;2024-03-22T00:39:26;8.30;99.90
59025;DHT22;44806;48.008;13.666;2024-03-22T00:41:53;8.30;99.90
59025;DHT22;44806;48.008;13.666;2024-03-22T00:44:20;8.30;99.90
59025;DHT22;44806;48.008;13.666;2024-03-22T00:46:46;8.40;99.90
59025;DHT22;44806;48.008;13.666;2024-03-22T00:49:13;8.40;99.90
59025;DHT22;44806;48.008;13.666;2024-03-22T00:51:39;8.30;99.90
59025;DHT22;44806;48.008;13.666;2024-03-22T00:54:08;8.30;99.90
59025;DHT22;44806;48.008;13.666;2024-03-22T00:56:34;8.30;99.90
59025;DHT22;44806;48.008;13.666;2024-03-22T00:59:03;8.30;99.90
59025;DHT22;44806;48.008;13.666;2024-03-22T01:01:29;8.30;99.90
59025;DHT22;44806;48.008;13.666;2024-03-22T01:03:56;8.30;99.90
59025;DHT22;44806;48.008;13.666;2024-03-22T01:06:22;8.20;99.90
59025;DHT22;44806;48.008;13.666;2024-03-22T01:08:50;8.30;99.90
59025;DHT22;44806;48.008;13.666;2024-03-22T01:11:17;8.30;99.90
59025;DHT22;44806;48.008;13.666;2024-03-22T01:13:44;8.40;99.90
59025;DHT22;44806;48.008;13.666;2024-03-22T01:16:12;8.40;99.90
59025;DHT22;44806;48.008;13.666;2024-03-22T01:18:39;8.30;99.90
59025;DHT22;44806;48.008;13.666;2024-03-22T01:21:05;8.30;99.90
59025;DHT22;44806;48.008;13.666;2024-03-22T01:23:32;8.30;99.90
59025;DHT22;44806;48.008;13.666;2024-03-22T01:25:58;8.30;99.90
59025;DHT22;44806;48.008;13.666;2024-03-22T01:28:26;8.40;99.90
59025;DHT22;44806;48.008;13.666;2024-03-22T01:30:52;8.40;99.90
59025;DHT22;44806;48.008;13.666;2024-03-22T01:33:20;8.40;99.90
59025;DHT22;44806;48.008;13.666;2024-03-22T01:35:46;8.40;99.90
59025;DHT22;44806;48.008;13.666;2024-03-22T01:38:13;8.40;99.90
59025;DHT22;44806;48.008;13.666;2024-03-22T01:40:39;8.40;99.90
59025;DHT22;44806;48.008;13.666;2024-03-22T01:43:06;8.40;99.90
59025;DHT22;44806;48.008;13.666;2024-03-22T01:45:33;8.40;99.90
59025;DHT22;44806;48.008;13.666;2024-03-22T01:48:00;8.30;99.90
59025;DHT22;44806;48.008;13.666;2024-03-22T01:50:28;8.40;99.90
59025;DHT22;44806;48.008;13.666;2024-03-22T01:52:56;8.40;99.90
59025;DHT22;44806;48.008;13.666;2024-03-22T01:55:22;8.40;99.90
59025;DHT22;44806;48.008;13.666;2024-03-22T01:57:52;8.40;99.90
59025;DHT22;44806;48.008;13.666;2024-03-22T02:00:19;8.30;99.90
59025;DHT22;44806;48.008;13.666;2024-03-22T02:02:46;8.30;99.90
59025;DHT22;44806;48.008;13.666;2024-03-22T02:05:13;8.30;99.90
59025;DHT22;44806;48.008;13.666;2024-03-22T02:07:42;8.30;99.90
59025;DHT22;44806;48.008;13.666;2024-03-22T02:10:09;8.30;99.90
59025;DHT22;44806;48.008;13.666;2024-03-22T02:12:38;8.30;99.90
59025;DHT22;44806;48.008;13.666;2024-03-22T02:15:04;8.30;99.90
59025;DHT22;44806;48.008;13.666;2024-03-22T02:17:32;8.30;99.90
59025;DHT22;44806;48.008;13.666;2024-03-22T02:19:58;8.30;99.90
59025;DHT22;44806;48.008;13.666;2024-03-22T02:22:26;8.30;99.90
59025;DHT22;44806;48.008;13.666;2024-03-22T02:24:54;8.30;99.90
59025;DHT22;44806;48.008;13.666;2024-03-22T02:27:21;8.20;99.90
59025;DHT22;44806;48.008;13.666;2024-03-22T02:29:47;8.20;99.90
59025;DHT22;44806;48.008;13.666;2024-03-22T02:32:14;8.20;99.90
59025;DHT22;44806;48.008;13.666;2024-03-22T02:34:40;8.20;99.90
59025;DHT22;44806;48.008;13.666;2024-03-22T02:37:07;8.10;99.90
59025;DHT22;44806;48.008;13.666;2024-03-22T02:39:33;8.10;99.90
59025;DHT22;44806;48.008;13.666;2024-03-22T02:42:02;8.10;99.90
59025;DHT22;44806;48.008;13.666;2024-03-22T02:44:28;8.10;99.90
59025;DHT22;44806;48.008;13.666;2024-03-22T02:46:55;8.00;99.90
59025;DHT22;44806;48.008;13.666;2024-03-22T02:49:21;8.00;99.90
59025;DHT22;44806;48.008;13.666;2024-03-22T02:51:48;7.90;99.90
59025;DHT22;44806;48.008;13.666;2024-03-22T02:54:14;7.80;99.90
59025;DHT22;44806;48.008;13.666;2024-03-22T02:56:41;7.70;99.90
59025;DHT22;44806;48.008;13.666;2024-03-22T02:59:08;7.70;99.90
59025;DHT22;44806;48.008;13.666;2024-03-22T03:01:35;7.70;99.90
59025;DHT22;44806;48.008;13.666;2024-03-22T03:04:01;7.80;99.90
59025;DHT22;44806;48.008;13.666;2024-03-22T03:06:28;7.70;99.90
59025;DHT22;44806;48.008;13.666;2024-03-22T03:08:54;7.60;99.90
59025;DHT22;44806;48.008;13.666;2024-03-22T03:11:21;7.50;99.90
59025;DHT22;44806;48.008;13.666;2024-03-22T03:13:47;7.50;99.90
59025;DHT22;44806;48.008;13.666;2024-03-22T03:16:16;7.40;99.90
59025;DHT22;44806;48.008;13.666;2024-03-22T03:18:42;7.40;99.90
59025;DHT22;44806;48.008;13.666;2024-03-22T03:21:09;7.50;99.90
59025;DHT22;44806;48.008;13.666;2024-03-22T03:23:35;7.50;99.90
59025;DHT22;44806;48.008;13.666;2024-03-22T03:26:03;7.50;99.90
59025;DHT22;44806;48.008;13.666;2024-03-22T03:28:29;7.40;99.90
59025;DHT22;44806;48.008;13.666;2024-03-22T03:30:56;7.30;99.90
59025;DHT22;44806;48.008;13.666;2024-03-22T03:33:23;7.30;99.90
59025;DHT22;44806;48.008;13.666;2024-03-22T03:35:50;7.30;99.90
59025;DHT22;44806;48.008;13.666;2024-03-22T03:38:16;7.20;99.90
59025;DHT22;44806;48.008;13.666;2024-03-22T03:40:43;7.20;99.90
59025;DHT22;44806;48.008;13.666;2024-03-22T03:43:09;7.20;99.90
59025;DHT22;44806;48.008;13.666;2024-03-22T03:45:37;7.10;99.90
59025;DHT22;44806;48.008;13.666;2024-03-22T03:48:03;7.10;99.90
59025;DHT22;44806;48.008;13.666;2024-03-22T03:50:31;7.10;99.90
59025;DHT22;44806;48.008;13.666;2024-03-22T03:52:57;7.00;99.90
59025;DHT22;44806;48.008;13.666;2024-03-22T03:55:24;6.90;99.90
59025;DHT22;44806;48.008;13.666;2024-03-22T03:57:51;7.00;99.90
59025;DHT22;44806;48.008;13.666;2024-03-22T04:00:19;6.90;99.90
59025;DHT22;44806;48.008;13.666;2024-03-22T04:02:45;6.90;99.90
59025;DHT22;44806;48.008;13.666;2024-03-22T04:05:12;6.90;99.90
59025;DHT22;44806;48.008;13.666;2024-03-22T04:07:40;6.90;99.90
59025;DHT22;44806;48.008;13.666;2024-03-22T04:10:08;6.90;99.90
59025;DHT22;44806;48.008;13.666;2024-03-22T04:12:34;7.00;99.90
59025;DHT22;44806;48.008;13.666;2024-03-22T04:15:02;7.00;99.90
59025;DHT22;44806;48.008;13.666;2024-03-22T04:17:28;6.90;99.90
59025;DHT22;44806;48.008;13.666;2024-03-22T04:19:55;6.90;99.90
59025;DHT22;44806;48.008;13.666;2024-03-22T04:22:21;7.00;99.90
59025;DHT22;44806;48.008;13.666;2024-03-22T04:24:49;7.00;99.90
59025;DHT22;44806;48.008;13.666;2024-03-22T04:27:15;7.00;99.90
59025;DHT22;44806;48.008;13.666;2024-03-22T04:29:42;6.90;99.90
59025;DHT22;44806;48.008;13.666;2024-03-22T04:32:08;6.90;99.90
59025;DHT22;44806;48.008;13.666;2024-03-22T04:34:35;6.80;99.90
59025;DHT22;44806;48.008;13.666;2024-03-22T04:37:01;6.80;99.90
59025;DHT22;44806;48.008;13.666;2024-03-22T04:39:28;6.80;99.90
59025;DHT22;44806;48.008;13.666;2024-03-22T04:41:57;6.80;99.90
59025;DHT22;44806;48.008;13.666;2024-03-22T04:44:24;6.80;99.90
59025;DHT22;44806;48.008;13.666;2024-03-22T04:46:50;6.70;99.90
59025;DHT22;44806;48.008;13.666;2024-03-22T04:49:18;6.70;99.90
59025;DHT22;44806;48.008;13.666;2024-03-22T04:51:44;6.70;99.90
59025;DHT22;44806;48.008;13.666;2024-03-22T04:54:11;6.50;99.90
59025;DHT22;44806;48.008;13.666;2024-03-22T04:56:37;6.50;99.90
59025;DHT22;44806;48.008;13.666;2024-03-22T04:59:05;6.40;99.90
59025;DHT22;44806;48.008;13.666;2024-03-22T05:01:31;6.40;99.90
59025;DHT22;44806;48.008;13.666;2024-03-22T05:03:58;6.50;99.90
59025;DHT22;44806;48.008;13.666;2024-03-22T05:06:24;6.50;99.90
59025;DHT22;44806;48.008;13.666;2024-03-22T05:08:51;6.50;99.90
59025;DHT22;44806;48.008;13.666;2024-03-22T05:11:17;6.50;99.90
59025;DHT22;44806;48.008;13.666;2024-03-22T05:13:44;6.50;99.90
59025;DHT22;44806;48.008;13.666;2024-03-22T05:16:13;6.50;99.90
59025;DHT22;44806;48.008;13.666;2024-03-22T05:18:40;6.50;99.90
59025;DHT22;44806;48.008;13.666;2024-03-22T05:21:06;6.50;99.90
59025;DHT22;44806;48.008;13.666;2024-03-22T05:23:33;6.50;99.90
59025;DHT22;44806;48.008;13.666;2024-03-22T05:25:59;6.60;99.90
59025;DHT22;44806;48.008;13.666;2024-03-22T05:28:26;6.50;99.90
59025;DHT22;44806;48.008;13.666;2024-03-22T05:30:52;6.50;99.90
59025;DHT22;44806;48.008;13.666;2024-03-22T05:33:21;6.50;99.90
59025;DHT22;44806;48.008;13.666;2024-03-22T05:35:47;6.50;99.90
59025;DHT22;44806;48.008;13.666;2024-03-22T05:38:14;6.40;99.90
59025;DHT22;44806;48.008;13.666;2024-03-22T05:40:40;6.40;99.90
59025;DHT22;44806;48.008;13.666;2024-03-22T05:43:07;6.40;99.90
59025;DHT22;44806;48.008;13.666;2024-03-22T05:45:33;6.40;99.90
59025;DHT22;44806;48.008;13.666;2024-03-22T05:48:00;6.50;99.90
59025;DHT22;44806;48.008;13.666;2024-03-22T05:50:27;6.50;99.90
59025;DHT22;44806;48.008;13.666;2024-03-22T05:52:54;6.50;99.90
59025;DHT22;44806;48.008;13.666;2024-03-22T05:55:20;6.50;99.90
59025;DHT22;44806;48.008;13.666;2024-03-22T05:57:47;6.60;99.90
59025;DHT22;44806;48.008;13.666;2024-03-22T06:00:14;6.60;99.90
59025;DHT22;44806;48.008;13.666;2024-03-22T06:02:41;6.60;99.90
59025;DHT22;44806;48.008;13.666;2024-03-22T06:05:08;6.70;99.90
59025;DHT22;44806;48.008;13.666;2024-03-22T06:07:35;6.80;99.90
59025;DHT22;44806;48.008;13.666;2024-03-22T06:10:08;6.90;99.90
59025;DHT22;44806;48.008;13.666;2024-03-22T06:12:35;6.90;99.90
59025;DHT22;44806;48.008;13.666;2024-03-22T06:15:02;7.00;99.90
59025;DHT22;44806;48.008;13.666;2024-03-22T06:17:31;7.00;99.90
59025;DHT22;44806;48.008;13.666;2024-03-22T06:19:59;7.00;99.90
59025;DHT22;44806;48.008;13.666;2024-03-22T06:22:25;7.10;99.90
59025;DHT22;44806;48.008;13.666;2024-03-22T06:24:54;7.20;99.90
59025;DHT22;44806;48.008;13.666;2024-03-22T06:27:20;7.20;99.90
59025;DHT22;44806;48.008;13.666;2024-03-22T06:29:47;7.30;99.90
59025;DHT22;44806;48.008;13.666;2024-03-22T06:32:13;7.30;99.90
59025;DHT22;44806;48.008;13.666;2024-03-22T06:34:40;7.40;99.90
59025;DHT22;44806;48.008;13.666;2024-03-22T06:37:06;7.50;99.90
59025;DHT22;44806;48.008;13.666;2024-03-22T06:39:33;7.60;99.90
59025;DHT22;44806;48.008;13.666;2024-03-22T06:42:00;7.60;99.90
59025;DHT22;44806;48.008;13.666;2024-03-22T06:44:27;7.70;99.90
59025;DHT22;44806;48.008;13.666;2024-03-22T06:46:53;7.80;99.90
59025;DHT22;44806;48.008;13.666;2024-03-22T06:49:20;7.90;99.90
59025;DHT22;44806;48.008;13.666;2024-03-22T06:51:47;8.00;99.90
59025;DHT22;44806;48.008;13.666;2024-03-22T06:54:14;8.00;99.90
59025;DHT22;44806;48.008;13.666;2024-03-22T06:56:40;8.00;99.90
59025;DHT22;44806;48.008;13.666;2024-03-22T06:59:08;8.00;99.90
59025;DHT22;44806;48.008;13.666;2024-03-22T07:01:34;8.10;99.90
59025;DHT22;44806;48.008;13.666;2024-03-22T07:04:01;8.10;99.90
59025;DHT22;44806;48.008;13.666;2024-03-22T07:06:27;8.10;99.90
59025;DHT22;44806;48.008;13.666;2024-03-22T07:08:55;8.20;99.90
59025;DHT22;44806;48.008;13.666;2024-03-22T07:11:21;8.20;99.90
59025;DHT22;44806;48.008;13.666;2024-03-22T07:13:49;8.30;99.90
59025;DHT22;44806;48.008;13.666;2024-03-22T07:16:16;8.40;99.90
59025;DHT22;44806;48.008;13.666;2024-03-22T07:18:43;8.40;99.90
59025;DHT22;44806;48.008;13.666;2024-03-22T07:21:09;8.50;99.90
59025;DHT22;44806;48.008;13.666;2024-03-22T07:23:36;8.50;99.90
59025;DHT22;44806;48.008;13.666;2024-03-22T07:26:03;8.60;99.90
59025;DHT22;44806;48.008;13.666;2024-03-22T07:28:31;8.70;99.90
59025;DHT22;44806;48.008;13.666;2024-03-22T07:30:57;8.80;99.90
59025;DHT22;44806;48.008;13.666;2024-03-22T07:33:26;8.80;99.90
59025;DHT22;44806;48.008;13.666;2024-03-22T07:35:52;8.90;99.90
59025;DHT22;44806;48.008;13.666;2024-03-22T07:38:20;9.00;99.90
59025;DHT22;44806;48.008;13.666;2024-03-22T07:40:46;9.10;99.90
59025;DHT22;44806;48.008;13.666;2024-03-22T07:43:13;9.20;99.90
59025;DHT22;44806;48.008;13.666;2024-03-22T07:45:42;9.40;99.90
59025;DHT22;44806;48.008;13.666;2024-03-22T07:48:09;9.40;99.90
59025;DHT22;44806;48.008;13.666;2024-03-22T07:50:37;9.50;99.90
59025;DHT22;44806;48.008;13.666;2024-03-22T07:53:04;9.60;99.90
59025;DHT22;44806;48.008;13.666;2024-03-22T07:55:30;9.70;99.90
59025;DHT22;44806;48.008;13.666;2024-03-22T07:57:57;9.70;99.90
59025;DHT22;44806;48.008;13.666;2024-03-22T08:00:23;9.80;99.90
59025;DHT22;44806;48.008;13.666;2024-03-22T08:02:51;9.90;99.90
59025;DHT22;44806;48.008;13.666;2024-03-22T08:05:17;9.90;99.90
59025;DHT22;44806;48.008;13.666;2024-03-22T08:07:46;9.90;99.90
59025;DHT22;44806;48.008;13.666;2024-03-22T08:10:13;10.00;99.90
59025;DHT22;44806;48.008;13.666;2024-03-22T08:12:41;10.10;99.90
59025;DHT22;44806;48.008;13.666;2024-03-22T08:15:08;10.10;99.90
59025;DHT22;44806;48.008;13.666;2024-03-22T08:17:35;10.00;99.90
59025;DHT22;44806;48.008;13.666;2024-03-22T08:20:01;10.10;99.90
59025;DHT22;44806;48.008;13.666;2024-03-22T08:22:29;10.30;99.90
59025;DHT22;44806;48.008;13.666;2024-03-22T08:24:56;10.30;99.90
59025;DHT22;44806;48.008;13.666;2024-03-22T08:29:59;10.50;99.90
59025;DHT22;44806;48.008;13.666;2024-03-22T08:32:26;10.60;99.90
59025;DHT22;44806;48.008;13.666;2024-03-22T08:34:52;10.50;99.90
59025;DHT22;44806;48.008;13.666;2024-03-22T08:37:19;10.60;99.90
59025;DHT22;44806;48.008;13.666;2024-03-22T08:39:45;10.80;99.90
59025;DHT22;44806;48.008;13.666;2024-03-22T08:42:14;10.90;99.90
59025;DHT22;44806;48.008;13.666;2024-03-22T08:44:40;11.00;99.90
59025;DHT22;44806;48.008;13.666;2024-03-22T08:47:07;11.10;99.90
59025;DHT22;44806;48.008;13.666;2024-03-22T08:49:34;11.20;99.90
59025;DHT22;44806;48.008;13.666;2024-03-22T08:52:02;11.30;99.90
59025;DHT22;44806;48.008;13.666;2024-03-22T08:54:28;11.30;99.90
59025;DHT22;44806;48.008;13.666;2024-03-22T08:56:55;11.40;99.90
59025;DHT22;44806;48.008;13.666;2024-03-22T08:59:22;11.50;99.90
59025;DHT22;44806;48.008;13.666;2024-03-22T09:01:50;11.60;99.90
59025;DHT22;44806;48.008;13.666;2024-03-22T09:04:16;11.70;99.90
59025;DHT22;44806;48.008;13.666;2024-03-22T09:06:43;11.80;99.90
59025;DHT22;44806;48.008;13.666;2024-03-22T09:09:11;11.90;99.90
59025;DHT22;44806;48.008;13.666;2024-03-22T09:11:38;12.10;99.90
59025;DHT22;44806;48.008;13.666;2024-03-22T09:14:04;12.20;99.90
59025;DHT22;44806;48.008;13.666;2024-03-22T09:16:32;12.40;99.90
59025;DHT22;44806;48.008;13.666;2024-03-22T09:18:59;12.60;99.90
59025;DHT22;44806;48.008;13.666;2024-03-22T09:21:26;12.80;99.90
59025;DHT22;44806;48.008;13.666;2024-03-22T09:23:52;13.00;99.90
59025;DHT22;44806;48.008;13.666;2024-03-22T09:26:19;13.20;99.90
59025;DHT22;44806;48.008;13.666;2024-03-22T09:28:46;13.30;99.90
59025;DHT22;44806;48.008;13.666;2024-03-22T09:31:12;13.40;99.90
59025;DHT22;44806;48.008;13.666;2024-03-22T09:33:41;13.60;99.90
59025;DHT22;44806;48.008;13.666;2024-03-22T09:36:08;13.70;99.90
59025;DHT22;44806;48.008;13.666;2024-03-22T09:38:35;13.90;99.90
59025;DHT22;44806;48.008;13.666;2024-03-22T09:41:01;13.90;99.90
59025;DHT22;44806;48.008;13.666;2024-03-22T09:43:30;14.00;99.90
59025;DHT22;44806;48.008;13.666;2024-03-22T09:45:56;14.10;99.90
59025;DHT22;44806;48.008;13.666;2024-03-22T09:48:23;14.20;99.90
59025;DHT22;44806;48.008;13.666;2024-03-22T09:50:52;14.30;99.90
59025;DHT22;44806;48.008;13.666;2024-03-22T09:53:20;14.40;99.90
59025;DHT22;44806;48.008;13.666;2024-03-22T09:55:47;14.40;99.90
59025;DHT22;44806;48.008;13.666;2024-03-22T09:58:15;14.60;99.90
59025;DHT22;44806;48.008;13.666;2024-03-22T10:00:42;14.70;98.80
59025;DHT22;44806;48.008;13.666;2024-03-22T10:03:10;14.80;99.90
59025;DHT22;44806;48.008;13.666;2024-03-22T10:05:36;14.90;98.80
59025;DHT22;44806;48.008;13.666;2024-03-22T10:08:05;14.90;98.50
59025;DHT22;44806;48.008;13.666;2024-03-22T10:10:32;15.10;98.80
59025;DHT22;44806;48.008;13.666;2024-03-22T10:13:00;15.20;96.40
59025;DHT22;44806;48.008;13.666;2024-03-22T10:15:26;15.20;95.90
59025;DHT22;44806;48.008;13.666;2024-03-22T10:17:57;15.30;97.80
59025;DHT22;44806;48.008;13.666;2024-03-22T10:20:23;15.40;96.10
59025;DHT22;44806;48.008;13.666;2024-03-22T10:22:55;15.20;93.90
59025;DHT22;44806;48.008;13.666;2024-03-22T10:25:23;15.30;95.40
59025;DHT22;44806;48.008;13.666;2024-03-22T10:27:50;15.40;95.90
59025;DHT22;44806;48.008;13.666;2024-03-22T10:30:17;15.20;93.00
59025;DHT22;44806;48.008;13.666;2024-03-22T10:32:44;15.30;93.70
59025;DHT22;44806;48.008;13.666;2024-03-22T10:35:12;15.40;94.80
59025;DHT22;44806;48.008;13.666;2024-03-22T10:37:39;15.40;93.60
59025;DHT22;44806;48.008;13.666;2024-03-22T10:40:05;15.60;94.80
59025;DHT22;44806;48.008;13.666;2024-03-22T10:42:36;15.60;93.20
59025;DHT22;44806;48.008;13.666;2024-03-22T10:45:03;15.90;94.40
59025;DHT22;44806;48.008;13.666;2024-03-22T10:47:31;16.10;92.40
59025;DHT22;44806;48.008;13.666;2024-03-22T10:50:04;16.20;92.10
59025;DHT22;44806;48.008;13.666;2024-03-22T10:52:34;16.30;92.00
59025;DHT22;44806;48.008;13.666;2024-03-22T10:55:03;16.20;91.20
59025;DHT22;44806;48.008;13.666;2024-03-22T10:57:32;16.20;90.00
59025;DHT22;44806;48.008;13.666;2024-03-22T11:00:04;16.10;92.40
59025;DHT22;44806;48.008;13.666;2024-03-22T11:02:35;16.10;92.30
59025;DHT22;44806;48.008;13.666;2024-03-22T11:05:02;16.00;90.80
59025;DHT22;44806;48.008;13.666;2024-03-22T11:07:29;16.10;92.00
59025;DHT22;44806;48.008;13.666;2024-03-22T11:10:01;16.10;91.60
59025;DHT22;44806;48.008;13.666;2024-03-22T11:12:29;16.20;90.10
59025;DHT22;44806;48.008;13.666;2024-03-22T11:14:59;16.00;90.80
59025;DHT22;44806;48.008;13.666;2024-03-22T11:17:27;16.30;91.60
59025;DHT22;44806;48.008;13.666;2024-03-22T11:19:53;16.30;91.20
59025;DHT22;44806;48.008;13.666;2024-03-22T11:22:20;16.30;88.70
59025;DHT22;44806;48.008;13.666;2024-03-22T11:24:46;16.50;90.70
59025;DHT22;44806;48.008;13.666;2024-03-22T11:27:13;16.50;89.80
59025;DHT22;44806;48.008;13.666;2024-03-22T11:29:39;16.40;90.00
59025;DHT22;44806;48.008;13.666;2024-03-22T11:32:07;16.20;87.30
59025;DHT22;44806;48.008;13.666;2024-03-22T11:34:36;16.40;91.90
59025;DHT22;44806;48.008;13.666;2024-03-22T11:37:04;16.70;87.70
59025;DHT22;44806;48.008;13.666;2024-03-22T11:39:32;17.00;91.00
59025;DHT22;44806;48.008;13.666;2024-03-22T11:42:00;17.20;90.70
59025;DHT22;44806;48.008;13.666;2024-03-22T11:44:27;16.80;86.50
59025;DHT22;44806;48.008;13.666;2024-03-22T11:46:54;16.80;85.30
59025;DHT22;44806;48.008;13.666;2024-03-22T11:49:20;16.70;85.20
59025;DHT22;44806;48.008;13.666;2024-03-22T11:51:51;16.60;85.10
59025;DHT22;44806;48.008;13.666;2024-03-22T11:54:19;16.60;87.50
59025;DHT22;44806;48.008;13.666;2024-03-22T11:56:46;16.70;84.10
59025;DHT22;44806;48.008;13.666;2024-03-22T11:59:12;16.70;84.00
59025;DHT22;44806;48.008;13.666;2024-03-22T12:01:41;16.70;83.90
59025;DHT22;44806;48.008;13.666;2024-03-22T12:04:07;16.70;83.30
59025;DHT22;44806;48.008;13.666;2024-03-22T12:06:34;16.80;83.90
59025;DHT22;44806;48.008;13.666;2024-03-22T12:09:02;16.80;82.80
59025;DHT22;44806;48.008;13.666;2024-03-22T12:11:29;16.90;83.60
59025;DHT22;44806;48.008;13.666;2024-03-22T12:13:55;17.10;82.90
59025;DHT22;44806;48.008;13.666;2024-03-22T12:16:22;17.20;85.70
59025;DHT22;44806;48.008;13.666;2024-03-22T12:18:48;17.30;82.00
59025;DHT22;44806;48.008;13.666;2024-03-22T12:21:15;17.30;82.30
59025;DHT22;44806;48.008;13.666;2024-03-22T12:23:41;17.20;83.30
59025;DHT22;44806;48.008;13.666;2024-03-22T12:26:10;17.30;80.40
59025;DHT22;44806;48.008;13.666;2024-03-22T12:28:36;17.10;83.50
59025;DHT22;44806;48.008;13.666;2024-03-22T12:31:04;17.40;83.60
59025;DHT22;44806;48.008;13.666;2024-03-22T12:33:30;17.50;83.70
59025;DHT22;44806;48.008;13.666;2024-03-22T12:35:57;17.70;84.60
59025;DHT22;44806;48.008;13.666;2024-03-22T12:38:23;17.70;84.20
59025;DHT22;44806;48.008;13.666;2024-03-22T12:40:50;17.80;84.20
59025;DHT22;44806;48.008;13.666;2024-03-22T12:43:18;17.60;82.50
59025;DHT22;44806;48.008;13.666;2024-03-22T12:45:45;17.60;85.10
59025;DHT22;44806;48.008;13.666;2024-03-22T12:48:11;17.30;80.10
59025;DHT22;44806;48.008;13.666;2024-03-22T12:50:38;17.30;80.60
59025;DHT22;44806;48.008;13.666;2024-03-22T12:53:04;17.40;80.40
59025;DHT22;44806;48.008;13.666;2024-03-22T12:55:32;17.50;80.80
59025;DHT22;44806;48.008;13.666;2024-03-22T12:57:58;17.50;78.50
59025;DHT22;44806;48.008;13.666;2024-03-22T13:00:26;17.60;85.00
59025;DHT22;44806;48.008;13.666;2024-03-22T13:02:52;17.50;80.20
59025;DHT22;44806;48.008;13.666;2024-03-22T13:05:19;17.50;80.60
59025;DHT22;44806;48.008;13.666;2024-03-22T13:07:45;17.60;80.40
59025;DHT22;44806;48.008;13.666;2024-03-22T13:10:13;17.60;81.10
59025;DHT22;44806;48.008;13.666;2024-03-22T13:12:39;17.70;82.20
59025;DHT22;44806;48.008;13.666;2024-03-22T13:15:06;17.70;82.90
59025;DHT22;44806;48.008;13.666;2024-03-22T13:17:34;17.90;85.20
59025;DHT22;44806;48.008;13.666;2024-03-22T13:20:01;18.00;81.50
59025;DHT22;44806;48.008;13.666;2024-03-22T13:22:33;18.20;84.50
59025;DHT22;44806;48.008;13.666;2024-03-22T13:25:00;18.20;80.90
59025;DHT22;44806;48.008;13.666;2024-03-22T13:27:26;18.10;81.20
59025;DHT22;44806;48.008;13.666;2024-03-22T13:29:53;17.70;78.80
59025;DHT22;44806;48.008;13.666;2024-03-22T13:32:19;17.60;79.70
59025;DHT22;44806;48.008;13.666;2024-03-22T13:34:48;17.50;80.00
59025;DHT22;44806;48.008;13.666;2024-03-22T13:37:14;17.50;81.40
59025;DHT22;44806;48.008;13.666;2024-03-22T13:39:41;17.80;84.50
59025;DHT22;44806;48.008;13.666;2024-03-22T13:42:07;18.00;83.40
59025;DHT22;44806;48.008;13.666;2024-03-22T13:44:34;17.90;80.20
59025;DHT22;44806;48.008;13.666;2024-03-22T13:47:00;17.60;78.50
59025;DHT22;44806;48.008;13.666;2024-03-22T13:49:30;17.50;81.40
59025;DHT22;44806;48.008;13.666;2024-03-22T13:51:59;17.70;80.60
59025;DHT22;44806;48.008;13.666;2024-03-22T13:54:26;17.80;83.00
59025;DHT22;44806;48.008;13.666;2024-03-22T13:56:52;17.60;80.20
59025;DHT22;44806;48.008;13.666;2024-03-22T13:59:19;17.60;81.10
59025;DHT22;44806;48.008;13.666;2024-03-22T14:01:45;17.70;82.30
59025;DHT22;44806;48.008;13.666;2024-03-22T14:04:13;17.80;79.10
59025;DHT22;44806;48.008;13.666;2024-03-22T14:06:41;17.70;81.50
59025;DHT22;44806;48.008;13.666;2024-03-22T14:09:10;17.60;78.50
59025;DHT22;44806;48.008;13.666;2024-03-22T14:11:38;17.60;82.20
59025;DHT22;44806;48.008;13.666;2024-03-22T14:14:05;17.60;80.50
59025;DHT22;44806;48.008;13.666;2024-03-22T14:16:33;17.60;81.80
59025;DHT22;44806;48.008;13.666;2024-03-22T14:19:00;17.70;79.50
59025;DHT22;44806;48.008;13.666;2024-03-22T14:21:26;17.60;81.60
59025;DHT22;44806;48.008;13.666;2024-03-22T14:23:53;17.60;80.50
59025;DHT22;44806;48.008;13.666;2024-03-22T14:26:21;17.60;81.40
59025;DHT22;44806;48.008;13.666;2024-03-22T14:28:49;17.70;80.60
59025;DHT22;44806;48.008;13.666;2024-03-22T14:31:16;17.90;82.00
59025;DHT22;44806;48.008;13.666;2024-03-22T14:33:43;18.00;80.30
59025;DHT22;44806;48.008;13.666;2024-03-22T14:36:09;18.20;80.70
59025;DHT22;44806;48.008;13.666;2024-03-22T14:38:38;18.20;82.20
59025;DHT22;44806;48.008;13.666;2024-03-22T14:41:05;18.30;80.70
59025;DHT22;44806;48.008;13.666;2024-03-22T14:43:33;18.50;80.20
59025;DHT22;44806;48.008;13.666;2024-03-22T14:46:01;18.50;78.50
59025;DHT22;44806;48.008;13.666;2024-03-22T14:48:28;18.40;80.20
59025;DHT22;44806;48.008;13.666;2024-03-22T14:50:54;18.50;81.10
59025;DHT22;44806;48.008;13.666;2024-03-22T14:53:22;18.60;79.40
59025;DHT22;44806;48.008;13.666;2024-03-22T14:55:54;18.40;77.10
59025;DHT22;44806;48.008;13.666;2024-03-22T14:58:24;18.10;78.70
59025;DHT22;44806;48.008;13.666;2024-03-22T15:00:56;17.70;77.80
59025;DHT22;44806;48.008;13.666;2024-03-22T15:03:23;17.80;78.80
59025;DHT22;44806;48.008;13.666;2024-03-22T15:05:50;17.70;78.60
59025;DHT22;44806;48.008;13.666;2024-03-22T15:08:17;17.80;78.70
59025;DHT22;44806;48.008;13.666;2024-03-22T15:10:43;17.80;79.40
59025;DHT22;44806;48.008;13.666;2024-03-22T15:13:11;18.00;78.40
59025;DHT22;44806;48.008;13.666;2024-03-22T15:15:37;18.20;79.00
59025;DHT22;44806;48.008;13.666;2024-03-22T15:18:07;18.10;78.80
59025;DHT22;44806;48.008;13.666;2024-03-22T15:20:33;18.20;79.80
59025;DHT22;44806;48.008;13.666;2024-03-22T15:23:01;18.20;79.20
59025;DHT22;44806;48.008;13.666;2024-03-22T15:25:27;18.10;78.90